Time;durP1;ratioP1;P1;durP2;ratioP2;P2;SDS_P1;SDS_P2;PMS_P1;PMS_P2;Temp;Humidity;BMP_temperature;BMP_pressure;BME280_temperature;BME280_humidity;BME280_pressure;Samples;Min_cycle;Max_cycle;Signal;HPM_P1;HPM_P2
2023/09/10 00:01:06;;;;;;;48.23;35.70;;;19.40;1.00;;;;;;5032885;28;20442;-52
2023/09/10 00:03:32;;;;;;;39.93;35.13;;;19.40;1.00;;;;;;5031063;28;20538;-52
2023/09/10 00:06:01;;;;;;;41.33;36.10;;;19.40;1.00;;;;;;5032577;28;20211;-52
2023/09/10 00:08:28;;;;;;;47.73;37.33;;;19.30;80.20;;;;;;5029616;28;20580;-52
2023/09/10 00:10:56;;;;;;;42.50;32.67;;;19.20;95.10;;;;;;5033090;28;20458;-52
2023/09/10 00:13:22;;;;;;;44.90;35.63;;;19.20;99.90;;;;;;5031973;28;20449;-52
2023/09/10 00:15:47;;;;;;;38.53;30.47;;;19.20;91.40;;;;;;5033827;28;20434;-52
2023/09/10 00:18:15;;;;;;;37.83;32.00;;;19.30;99.90;;;;;;5028054;28;20803;-52
2023/09/10 00:20:40;;;;;;;39.40;32.70;;;19.30;99.90;;;;;;5031958;28;20202;-52
2023/09/10 00:23:06;;;;;;;32.80;28.23;;;19.30;1.00;;;;;;5030302;28;20482;-51
2023/09/10 00:25:34;;;;;;;37.40;29.97;;;19.40;1.00;;;;;;5028079;28;20183;-52
2023/09/10 00:27:59;;;;;;;50.50;33.50;;;19.50;1.00;;;;;;5030346;28;20576;-52
2023/09/10 00:30:27;;;;;;;41.63;33.60;;;19.50;99.90;;;;;;5026775;28;20941;-52
2023/09/10 00:32:53;;;;;;;46.70;38.30;;;19.50;99.90;;;;;;5030270;28;20195;-51
2023/09/10 00:35:18;;;;;;;37.47;30.13;;;19.40;99.90;;;;;;5032394;28;20837;-51
2023/09/10 00:37:44;;;;;;;37.33;31.17;;;19.40;1.00;;;;;;5031854;28;20663;-52
2023/09/10 00:40:10;;;;;;;56.57;38.57;;;19.30;99.90;;;;;;5030237;28;20184;-51
2023/09/10 00:42:37;;;;;;;47.50;36.03;;;19.20;99.90;;;;;;5032891;28;20206;-52
2023/09/10 00:45:04;;;;;;;50.90;37.70;;;19.20;1.00;;;;;;5030107;28;20790;-52
2023/09/10 00:47:30;;;;;;;45.27;37.67;;;19.10;1.00;;;;;;5033300;28;20438;-51
2023/09/10 00:49:55;;;;;;;42.50;34.40;;;19.10;99.90;;;;;;5029889;28;20548;-51
2023/09/10 00:52:22;;;;;;;49.70;40.60;;;19.10;1.00;;;;;;5030606;28;20454;-49
2023/09/10 00:54:49;;;;;;;37.77;32.13;;;19.20;99.90;;;;;;5031694;28;20196;-51
2023/09/10 00:57:15;;;;;;;50.43;38.97;;;19.20;99.90;;;;;;5031539;28;20933;-51
2023/09/10 00:59:42;;;;;;;38.87;34.40;;;19.10;99.90;;;;;;5031908;28;20430;-51
2023/09/10 01:02:08;;;;;;;51.97;43.60;;;19.20;99.90;;;;;;5031714;28;20683;-51
2023/09/10 01:04:34;;;;;;;55.50;44.17;;;19.10;99.90;;;;;;5029606;28;20953;-51
2023/09/10 01:07:01;;;;;;;51.80;39.77;;;19.10;1.00;;;;;;5032462;28;20454;-51
2023/09/10 01:09:27;;;;;;;37.37;31.70;;;19.00;1.00;;;;;;5029491;28;20225;-51
2023/09/10 01:11:57;;;;;;;39.63;32.13;;;19.10;99.90;;;;;;5030326;28;20439;-51
2023/09/10 01:14:33;;;;;;;38.87;32.60;;;19.20;99.90;;;;;;5030894;28;20643;-51
2023/09/10 01:17:26;;;;;;;31.97;26.90;;;19.30;99.90;;;;;;5031379;28;20436;-51
2023/09/10 01:19:51;;;;;;;43.67;35.17;;;19.40;1.00;;;;;;5029482;28;20436;-52
2023/09/10 01:23:01;;;;;;;48.20;39.27;;;19.40;99.90;;;;;;5033043;28;20828;-52
2023/09/10 01:25:27;;;;;;;53.43;38.90;;;19.40;2.70;;;;;;5031206;28;20191;-51
2023/09/10 01:27:52;;;;;;;39.57;32.53;;;19.40;99.90;;;;;;5031880;28;20441;-51
2023/09/10 01:30:18;;;;;;;48.70;38.70;;;19.30;99.90;;;;;;5028457;28;20643;-51
2023/09/10 01:32:43;;;;;;;60.67;45.23;;;19.30;99.90;;;;;;5030922;28;20184;-51
2023/09/10 01:35:19;;;;;;;61.23;46.03;;;19.20;99.90;;;;;;5030107;28;20290;-51
2023/09/10 01:37:59;;;;;;;44.00;34.57;;;19.10;1.00;;;;;;5030065;28;20197;-51
2023/09/10 01:40:31;;;;;;;52.60;41.50;;;19.00;1.00;;;;;;5029985;28;20446;-51
2023/09/10 01:42:57;;;;;;;53.60;44.67;;;19.10;1.00;;;;;;5031877;28;20453;-51
2023/09/10 01:45:25;;;;;;;47.20;36.90;;;19.10;1.00;;;;;;5030821;28;20434;-51
2023/09/10 01:47:50;;;;;;;53.00;41.83;;;19.10;1.00;;;;;;5031960;28;20257;-51
2023/09/10 01:50:16;;;;;;;58.07;43.80;;;19.10;99.90;;;;;;5029652;28;20493;-51
2023/09/10 01:52:42;;;;;;;62.83;47.37;;;19.10;1.00;;;;;;5031439;28;20194;-51
2023/09/10 01:55:08;;;;;;;50.40;40.17;;;19.10;1.00;;;;;;5030250;28;20446;-52
2023/09/10 01:57:34;;;;;;;52.83;38.63;;;19.10;99.90;;;;;;5031024;28;20442;-51
2023/09/10 01:59:59;;;;;;;48.10;38.73;;;19.00;1.00;;;;;;5029665;28;20438;-51
2023/09/10 02:02:25;;;;;;;70.27;50.70;;;19.00;14.30;;;;;;5029389;28;20197;-51
2023/09/10 02:04:50;;;;;;;81.27;55.20;;;19.10;99.90;;;;;;5029392;28;20206;-51
2023/09/10 02:07:16;;;;;;;60.07;46.10;;;19.10;99.90;;;;;;5028475;28;20187;-51
2023/09/10 02:09:42;;;;;;;76.93;55.90;;;19.10;99.90;;;;;;5029294;28;20307;-50
2023/09/10 02:12:07;;;;;;;49.87;38.03;;;19.00;1.00;;;;;;5030787;28;20193;-51
2023/09/10 02:14:33;;;;;;;41.63;33.90;;;19.00;68.70;;;;;;5031186;28;20513;-52
2023/09/10 02:16:58;;;;;;;57.23;46.40;;;19.10;99.90;;;;;;5030607;28;20202;-52
2023/09/10 02:19:24;;;;;;;60.80;45.53;;;19.20;1.00;;;;;;5029957;28;20274;-52
2023/09/10 02:21:52;;;;;;;47.90;37.77;;;19.20;99.90;;;;;;5029338;28;20230;-51
2023/09/10 02:24:17;;;;;;;54.70;40.80;;;19.30;99.90;;;;;;5030275;28;20459;-51
2023/09/10 02:26:43;;;;;;;72.60;51.23;;;19.30;1.00;;;;;;5033458;28;20453;-52
2023/09/10 02:29:08;;;;;;;54.93;41.57;;;19.30;1.00;;;;;;5029514;28;20291;-51
2023/09/10 02:31:34;;;;;;;56.00;42.63;;;19.30;55.50;;;;;;5031758;28;20509;-52
2023/09/10 02:34:01;;;;;;;64.67;50.37;;;19.30;1.00;;;;;;5029334;28;20253;-52
2023/09/10 02:36:28;;;;;;;61.27;46.07;;;19.20;1.00;;;;;;5028271;28;20207;-52
2023/09/10 02:38:53;;;;;;;67.47;48.80;;;19.20;1.00;;;;;;5029476;28;20477;-51
2023/09/10 02:41:19;;;;;;;56.10;43.90;;;19.20;1.00;;;;;;5030258;28;20477;-51
2023/09/10 02:43:44;;;;;;;63.50;46.17;;;19.20;1.00;;;;;;5029474;28;20622;-52
2023/09/10 02:46:10;;;;;;;62.87;46.97;;;19.20;1.00;;;;;;5027782;28;20237;-51
2023/09/10 02:48:35;;;;;;;74.20;52.80;;;19.20;1.00;;;;;;5029862;28;20276;-51
2023/09/10 02:51:01;;;;;;;81.60;57.50;;;19.10;1.00;;;;;;5026575;28;20549;-52
2023/09/10 02:53:26;;;;;;;97.67;65.30;;;19.10;63.20;;;;;;5029904;28;20190;-52
2023/09/10 02:56:02;;;;;;;94.47;65.13;;;19.00;1.00;;;;;;5026064;28;20190;-52
2023/09/10 02:58:27;;;;;;;70.67;51.47;;;18.90;99.90;;;;;;5030582;28;20237;-51
2023/09/10 03:00:53;;;;;;;75.57;54.10;;;18.90;99.90;;;;;;5029610;28;20831;-51
2023/09/10 03:03:19;;;;;;;76.70;53.20;;;18.90;1.00;;;;;;5029403;28;20548;-51
2023/09/10 03:05:46;;;;;;;84.73;54.90;;;18.90;61.30;;;;;;5028144;28;20198;-52
2023/09/10 03:08:11;;;;;;;69.37;49.77;;;18.90;99.90;;;;;;5027459;28;20509;-51
2023/09/10 03:10:37;;;;;;;103.30;66.33;;;18.90;99.90;;;;;;5026040;28;20477;-52
2023/09/10 03:13:03;;;;;;;76.17;51.40;;;18.90;21.90;;;;;;5028198;28;20211;-52
2023/09/10 03:15:28;;;;;;;81.20;57.53;;;18.90;99.90;;;;;;5027256;28;20647;-51
2023/09/10 03:17:54;;;;;;;84.60;54.23;;;18.90;99.90;;;;;;5026923;28;20205;-51
2023/09/10 03:20:20;;;;;;;71.43;48.30;;;18.90;99.90;;;;;;5027556;28;20237;-50
2023/09/10 03:22:45;;;;;;;73.13;50.53;;;18.90;99.90;;;;;;5027237;28;20597;-51
2023/09/10 03:25:11;;;;;;;83.37;55.97;;;18.90;99.90;;;;;;5028841;28;20525;-51
2023/09/10 03:27:37;;;;;;;72.30;51.10;;;18.90;99.90;;;;;;5029881;28;20187;-51
2023/09/10 03:30:05;;;;;;;135.83;86.50;;;18.90;12.20;;;;;;5028156;28;20700;-51
2023/09/10 03:32:31;;;;;;;78.07;51.73;;;18.90;99.90;;;;;;5028893;28;20245;-51
2023/09/10 03:34:56;;;;;;;87.43;57.97;;;18.80;99.90;;;;;;5030628;28;20575;-51
2023/09/10 03:37:22;;;;;;;84.50;57.33;;;18.80;99.90;;;;;;5030892;28;20470;-51
2023/09/10 03:39:47;;;;;;;99.77;66.20;;;18.80;1.00;;;;;;5030918;28;20191;-51
2023/09/10 03:42:13;;;;;;;131.93;86.27;;;18.80;66.50;;;;;;5031030;28;20233;-51
2023/09/10 03:44:39;;;;;;;155.23;96.57;;;18.70;99.90;;;;;;5033239;28;20273;-51
2023/09/10 03:47:04;;;;;;;166.77;98.67;;;18.60;99.90;;;;;;5029235;28;20577;-51
2023/09/10 03:49:30;;;;;;;193.67;108.90;;;18.50;99.90;;;;;;5030110;28;20314;-51
2023/09/10 03:51:57;;;;;;;185.77;107.20;;;18.50;93.30;;;;;;5031645;28;20295;-51
2023/09/10 03:54:23;;;;;;;178.77;105.50;;;18.40;1.00;;;;;;5030156;28;20282;-51
2023/09/10 03:56:48;;;;;;;153.80;94.83;;;18.30;99.90;;;;;;5029336;28;20431;-52
2023/09/10 03:59:14;;;;;;;272.93;101.20;;;18.20;1.00;;;;;;5033027;28;20538;-51
2023/09/10 04:01:39;;;;;;;187.10;96.20;;;18.10;99.90;;;;;;5033522;28;20181;-51
2023/09/10 04:04:06;;;;;;;191.90;88.07;;;18.00;99.90;;;;;;5031579;28;20198;-52
2023/09/10 04:06:31;;;;;;;180.80;89.27;;;17.90;99.90;;;;;;5031389;28;20208;-51
2023/09/10 04:08:57;;;;;;;174.03;84.00;;;17.80;99.90;;;;;;5033432;28;21271;-51
2023/09/10 04:11:23;;;;;;;222.37;92.50;;;17.80;99.90;;;;;;5033374;28;20516;-51
2023/09/10 04:13:49;;;;;;;178.10;88.90;;;17.80;99.90;;;;;;5031738;28;20468;-52
2023/09/10 04:16:14;;;;;;;285.70;91.67;;;17.80;99.90;;;;;;5033126;28;20190;-51
2023/09/10 04:18:40;;;;;;;179.17;86.83;;;17.80;99.90;;;;;;5033476;28;20191;-51
2023/09/10 04:21:06;;;;;;;207.77;90.77;;;17.70;99.90;;;;;;5031858;28;20194;-52
2023/09/10 04:23:32;;;;;;;142.17;77.07;;;17.70;99.90;;;;;;5032720;28;20790;-50
2023/09/10 04:25:57;;;;;;;305.00;89.17;;;17.70;99.90;;;;;;5033318;28;20333;-52
2023/09/10 04:28:23;;;;;;;204.07;79.17;;;17.70;99.90;;;;;;5031194;28;20479;-51
2023/09/10 04:30:49;;;;;;;119.90;68.47;;;17.70;99.90;;;;;;5033292;28;20239;-51
2023/09/10 04:33:16;;;;;;;244.63;92.40;;;17.70;99.90;;;;;;5031313;28;20213;-49
2023/09/10 04:35:49;;;;;;;195.37;80.40;;;17.70;99.90;;;;;;5032874;28;20264;-51
2023/09/10 04:38:14;;;;;;;170.33;74.07;;;17.70;99.90;;;;;;5027989;28;20997;-52
2023/09/10 04:40:41;;;;;;;163.57;78.97;;;17.70;99.90;;;;;;5031786;28;20443;-51
2023/09/10 04:43:07;;;;;;;105.47;59.63;;;17.70;99.90;;;;;;5031012;28;20206;-51
2023/09/10 04:45:33;;;;;;;107.07;63.17;;;17.70;99.90;;;;;;5032200;28;20442;-51
2023/09/10 04:47:58;;;;;;;139.83;71.23;;;17.80;99.90;;;;;;5030496;28;20277;-52
2023/09/10 04:50:24;;;;;;;162.37;76.63;;;17.90;99.90;;;;;;5031608;28;20186;-51
2023/09/10 04:52:51;;;;;;;133.83;67.67;;;17.90;99.90;;;;;;5030671;28;20217;-51
2023/09/10 04:55:17;;;;;;;144.40;69.90;;;17.90;99.90;;;;;;5026275;28;20513;-50
2023/09/10 04:57:42;;;;;;;181.63;68.37;;;17.90;99.90;;;;;;5032314;28;20436;-51
2023/09/10 05:00:09;;;;;;;112.70;61.27;;;17.90;99.90;;;;;;5031307;28;20194;-52
2023/09/10 05:02:34;;;;;;;153.43;60.93;;;18.00;99.90;;;;;;5030903;28;20658;-51
2023/09/10 05:05:00;;;;;;;125.77;59.40;;;18.00;99.90;;;;;;5030200;28;20441;-51
2023/09/10 05:07:25;;;;;;;121.63;59.47;;;18.00;99.90;;;;;;5029927;28;20241;-51
2023/09/10 05:09:51;;;;;;;96.30;57.20;;;17.90;99.90;;;;;;5031033;28;20561;-51
2023/09/10 05:12:17;;;;;;;128.00;63.60;;;17.90;99.90;;;;;;5030548;28;20282;-51
2023/09/10 05:14:42;;;;;;;147.57;53.03;;;17.90;99.90;;;;;;5030630;28;20189;-52
2023/09/10 05:17:08;;;;;;;105.40;52.53;;;17.90;99.90;;;;;;5029131;28;20221;-51
2023/09/10 05:19:33;;;;;;;169.97;69.33;;;17.90;99.90;;;;;;5031004;28;20191;-51
2023/09/10 05:21:59;;;;;;;150.57;71.13;;;17.90;99.90;;;;;;5029759;28;20236;-51
2023/09/10 05:24:25;;;;;;;166.50;73.67;;;17.90;99.90;;;;;;5031735;28;20678;-51
2023/09/10 05:26:51;;;;;;;152.80;67.47;;;17.90;99.90;;;;;;5028483;28;20210;-51
2023/09/10 05:29:17;;;;;;;132.60;63.30;;;17.80;99.90;;;;;;5030586;28;20971;-51
2023/09/10 05:31:42;;;;;;;158.50;72.50;;;17.80;99.90;;;;;;5030979;28;20231;-52
2023/09/10 05:34:08;;;;;;;179.77;76.90;;;17.80;99.90;;;;;;5030299;28;20202;-51
2023/09/10 05:36:34;;;;;;;212.50;82.83;;;17.80;99.90;;;;;;5031034;28;20181;-52
2023/09/10 05:39:00;;;;;;;176.23;74.37;;;17.80;99.90;;;;;;5029505;28;20206;-52
2023/09/10 05:41:26;;;;;;;203.20;79.40;;;17.80;99.90;;;;;;5029356;28;20984;-52
2023/09/10 05:43:51;;;;;;;204.70;81.93;;;17.80;99.90;;;;;;5030587;28;20446;-52
2023/09/10 05:46:17;;;;;;;216.67;81.10;;;17.80;99.90;;;;;;5030115;28;20187;-52
2023/09/10 05:48:43;;;;;;;207.77;80.77;;;17.70;99.90;;;;;;5029438;28;20214;-52
2023/09/10 05:51:09;;;;;;;244.00;85.80;;;17.70;99.90;;;;;;5029979;28;20209;-51
2023/09/10 05:53:34;;;;;;;233.57;85.90;;;17.70;99.90;;;;;;5029719;28;20322;-51
2023/09/10 05:56:03;;;;;;;222.00;77.53;;;17.70;99.90;;;;;;5027261;28;20180;-51
2023/09/10 05:58:29;;;;;;;213.10;80.80;;;17.70;99.90;;;;;;5027048;28;20193;-52
2023/09/10 06:00:54;;;;;;;207.97;77.27;;;17.70;99.90;;;;;;5043180;28;20510;-52
2023/09/10 06:03:20;;;;;;;225.13;82.03;;;17.70;99.90;;;;;;5030584;28;20194;-52
2023/09/10 06:05:46;;;;;;;198.30;77.23;;;17.70;99.90;;;;;;5030240;28;20736;-51
2023/09/10 06:08:11;;;;;;;146.00;64.77;;;17.80;99.90;;;;;;5028563;28;20226;-51
2023/09/10 06:10:37;;;;;;;163.30;70.00;;;17.80;99.90;;;;;;5030495;28;20487;-51
2023/09/10 06:13:03;;;;;;;179.43;76.30;;;17.70;99.90;;;;;;5029943;28;20554;-51
2023/09/10 06:15:28;;;;;;;194.63;78.30;;;17.70;99.90;;;;;;5029408;28;20284;-52
2023/09/10 06:17:54;;;;;;;188.53;77.57;;;17.70;99.90;;;;;;5029327;28;20627;-51
2023/09/10 06:20:19;;;;;;;162.10;71.63;;;17.70;99.90;;;;;;5024495;28;20735;-51
2023/09/10 06:22:45;;;;;;;150.33;68.47;;;17.60;99.90;;;;;;5028016;28;20599;-52
2023/09/10 06:25:10;;;;;;;173.47;74.03;;;17.60;99.90;;;;;;5030583;28;20205;-49
2023/09/10 06:27:36;;;;;;;140.57;64.83;;;17.70;99.90;;;;;;5026008;28;20284;-51
2023/09/10 06:30:02;;;;;;;121.43;58.37;;;17.70;99.90;;;;;;5028896;28;21020;-51
2023/09/10 06:32:28;;;;;;;137.47;64.97;;;17.70;99.90;;;;;;5028970;28;20677;-52
2023/09/10 06:34:53;;;;;;;118.57;56.00;;;17.90;99.90;;;;;;5025245;28;20441;-52
2023/09/10 06:37:19;;;;;;;120.03;57.27;;;18.00;99.90;;;;;;5028684;28;20536;-51
2023/09/10 06:39:45;;;;;;;104.27;50.17;;;18.00;99.90;;;;;;5028182;28;20189;-51
2023/09/10 06:42:12;;;;;;;126.53;60.27;;;18.20;99.90;;;;;;5029860;28;20194;-51
2023/09/10 06:44:42;;;;;;;128.53;61.43;;;18.20;99.90;;;;;;5028468;28;20199;-52
2023/09/10 06:47:08;;;;;;;116.33;57.70;;;18.30;99.90;;;;;;5028125;28;20484;-51
2023/09/10 06:49:34;;;;;;;127.13;60.60;;;18.30;99.90;;;;;;5028088;28;20811;-52
2023/09/10 06:51:59;;;;;;;112.03;53.90;;;18.30;99.90;;;;;;5029245;28;20494;-51
2023/09/10 06:54:25;;;;;;;90.50;46.90;;;18.40;99.90;;;;;;5025599;28;20297;-51
2023/09/10 06:56:51;;;;;;;91.40;46.83;;;18.40;99.90;;;;;;5026589;28;20193;-51
2023/09/10 06:59:16;;;;;;;104.80;52.67;;;18.50;99.90;;;;;;5026974;28;20236;-51
2023/09/10 07:01:42;;;;;;;109.87;55.60;;;18.60;99.90;;;;;;5028861;28;20186;-52
2023/09/10 07:04:21;;;;;;;112.30;56.70;;;18.60;99.90;;;;;;5027541;28;20196;-51
2023/09/10 07:06:49;;;;;;;94.83;51.43;;;18.50;99.90;;;;;;5030433;28;20196;-51
2023/09/10 07:09:23;;;;;;;95.00;49.50;;;18.50;99.90;;;;;;5031851;28;20473;-52
2023/09/10 07:11:52;;;;;;;98.53;51.03;;;18.50;99.90;;;;;;5028495;28;20434;-51
2023/09/10 07:14:19;;;;;;;81.80;43.57;;;18.60;99.90;;;;;;5030113;28;20445;-51
2023/09/10 07:16:47;;;;;;;102.57;52.30;;;18.60;99.90;;;;;;5028622;28;20937;-51
2023/09/10 07:19:13;;;;;;;91.40;49.90;;;18.60;99.90;;;;;;5027652;28;20590;-50
2023/09/10 07:21:39;;;;;;;86.90;46.10;;;18.50;99.90;;;;;;5026792;28;20581;-51
2023/09/10 07:24:06;;;;;;;98.67;49.93;;;18.50;99.90;;;;;;5032430;28;20189;-51
2023/09/10 07:26:38;;;;;;;96.50;52.10;;;18.50;99.90;;;;;;5031418;28;20456;-51
2023/09/10 07:29:08;;;;;;;121.00;58.23;;;18.50;99.90;;;;;;5029884;28;20816;-51
2023/09/10 07:31:35;;;;;;;115.70;56.60;;;18.50;99.90;;;;;;5030017;28;20448;-51
2023/09/10 07:34:02;;;;;;;108.03;56.53;;;18.50;99.90;;;;;;5033284;28;20448;-52
2023/09/10 07:36:28;;;;;;;111.77;56.17;;;18.50;99.90;;;;;;5034053;28;20440;-52
2023/09/10 07:38:54;;;;;;;100.93;55.20;;;18.50;99.90;;;;;;5032402;28;20440;-52
2023/09/10 07:41:20;;;;;;;102.33;53.77;;;18.50;99.90;;;;;;5032903;28;20210;-51
2023/09/10 07:43:46;;;;;;;111.60;59.50;;;18.50;99.90;;;;;;5033317;28;20437;-52
2023/09/10 07:46:11;;;;;;;103.63;53.83;;;18.60;99.90;;;;;;5031840;28;20184;-52
2023/09/10 07:48:38;;;;;;;96.80;51.73;;;18.60;99.90;;;;;;5032766;28;20208;-52
2023/09/10 07:51:03;;;;;;;86.63;47.10;;;18.60;99.90;;;;;;5032034;28;20206;-52
2023/09/10 07:53:29;;;;;;;102.20;53.60;;;18.70;99.90;;;;;;5030424;28;20541;-51
2023/09/10 07:55:56;;;;;;;95.27;52.47;;;18.70;99.90;;;;;;5031021;28;20209;-52
2023/09/10 07:58:22;;;;;;;95.80;53.50;;;18.80;82.40;;;;;;5031482;28;20220;-52
2023/09/10 08:00:47;;;;;;;102.90;55.53;;;18.70;18.80;;;;;;5031186;28;20469;-52
2023/09/10 08:03:14;;;;;;;107.13;56.27;;;18.80;47.40;;;;;;5033617;28;20653;-52
2023/09/10 08:05:40;;;;;;;92.10;50.90;;;18.70;54.10;;;;;;5029536;28;20191;-51
2023/09/10 08:08:06;;;;;;;96.30;51.10;;;18.70;49.40;;;;;;5031108;28;20539;-52
2023/09/10 08:10:34;;;;;;;94.77;49.60;;;18.80;61.10;;;;;;5032690;28;20601;-52
2023/09/10 08:13:00;;;;;;;100.20;49.30;;;18.80;52.60;;;;;;5028370;28;20286;-52
2023/09/10 08:15:26;;;;;;;93.73;50.03;;;18.80;39.40;;;;;;5028760;28;20803;-52
2023/09/10 08:17:55;;;;;;;92.50;47.97;;;18.80;47.80;;;;;;5030681;28;20447;-51
2023/09/10 08:20:21;;;;;;;78.90;45.33;;;18.80;99.90;;;;;;5029056;28;20187;-52
2023/09/10 08:22:47;;;;;;;88.83;48.10;;;18.90;98.00;;;;;;5028855;28;20948;-52
2023/09/10 08:25:13;;;;;;;90.30;48.93;;;19.10;51.90;;;;;;5030317;28;20511;-52
2023/09/10 08:27:39;;;;;;;89.70;48.50;;;19.10;1.00;;;;;;5030107;28;20551;-51
2023/09/10 08:30:07;;;;;;;83.97;46.43;;;19.00;1.00;;;;;;5026384;28;20496;-51
2023/09/10 08:32:33;;;;;;;87.03;46.73;;;19.00;1.00;;;;;;5029931;28;20190;-52
2023/09/10 08:34:59;;;;;;;85.47;48.30;;;19.00;1.00;;;;;;5031439;28;20447;-51
2023/09/10 08:37:24;;;;;;;95.93;53.20;;;19.00;1.00;;;;;;5034432;28;20876;-51
2023/09/10 08:39:50;;;;;;;94.77;51.63;;;19.10;1.00;;;;;;5034370;28;20232;-52
2023/09/10 08:42:53;;;;;;;82.60;44.93;;;19.10;1.00;;;;;;5033318;28;20191;-51
2023/09/10 08:45:19;;;;;;;73.87;41.70;;;19.30;1.00;;;;;;5029771;28;20183;-52
2023/09/10 08:47:48;;;;;;;76.17;41.33;;;19.30;1.00;;;;;;5029122;28;20452;-52
2023/09/10 08:50:15;;;;;;;89.27;47.27;;;19.40;99.90;;;;;;5030794;28;20242;-52
2023/09/10 08:52:45;;;;;;;74.73;41.17;;;19.50;99.90;;;;;;5030719;28;20430;-52
2023/09/10 08:55:12;;;;;;;80.20;44.57;;;19.70;99.90;;;;;;5032275;28;20427;-52
2023/09/10 08:57:40;;;;;;;66.37;38.53;;;19.80;13.90;;;;;;5031308;28;20449;-52
2023/09/10 09:00:16;;;;;;;72.47;40.57;;;20.00;49.60;;;;;;5030749;28;20442;-52
2023/09/10 09:02:43;;;;;;;74.33;41.17;;;20.20;1.00;;;;;;5029350;28;20441;-52
2023/09/10 09:05:09;;;;;;;68.13;41.73;;;20.40;1.00;;;;;;5032550;28;20519;-52
2023/09/10 09:07:49;;;;;;;64.70;38.23;;;20.80;1.00;;;;;;5029042;28;20552;-52
2023/09/10 09:10:28;;;;;;;71.33;40.67;;;21.10;99.90;;;;;;5029656;28;20474;-52
2023/09/10 09:12:59;;;;;;;69.23;42.80;;;21.30;99.90;;;;;;5028801;28;20992;-52
2023/09/10 09:15:28;;;;;;;69.40;41.57;;;21.40;99.90;;;;;;5032200;28;20457;-52
2023/09/10 09:17:58;;;;;;;67.60;39.57;;;21.70;99.90;;;;;;5028875;28;20442;-53
2023/09/10 09:20:24;;;;;;;67.43;40.83;;;21.80;93.40;;;;;;5025975;28;20441;-51
2023/09/10 09:22:54;;;;;;;66.83;41.87;;;21.90;11.20;;;;;;5030206;28;20498;-51
2023/09/10 09:25:20;;;;;;;70.80;42.60;;;22.10;1.00;;;;;;5031421;28;20434;-50
2023/09/10 09:27:48;;;;;;;63.40;39.47;;;22.40;1.00;;;;;;5030850;28;20441;-51
2023/09/10 09:30:14;;;;;;;65.13;41.90;;;22.50;1.00;;;;;;5028511;28;20275;-52
2023/09/10 09:32:40;;;;;;;70.43;43.20;;;22.50;1.00;;;;;;5029106;28;20435;-51
2023/09/10 09:35:09;;;;;;;60.17;38.37;;;22.50;1.00;;;;;;5029140;28;20556;-52
2023/09/10 09:37:35;;;;;;;56.37;37.00;;;22.60;1.00;;;;;;5031447;28;20215;-51
2023/09/10 09:40:03;;;;;;;59.67;39.03;;;22.70;1.00;;;;;;5028818;28;20434;-51
2023/09/10 09:42:29;;;;;;;66.90;40.93;;;22.80;1.00;;;;;;5028782;28;20441;-51
2023/09/10 09:44:55;;;;;;;57.63;35.73;;;22.70;1.00;;;;;;5031244;28;20571;-52
2023/09/10 09:47:21;;;;;;;61.87;40.97;;;22.70;1.00;;;;;;5031268;28;20446;-52
2023/09/10 09:49:50;;;;;;;65.10;41.33;;;22.50;1.00;;;;;;5032019;28;20572;-53
2023/09/10 09:52:17;;;;;;;60.03;37.43;;;22.50;1.00;;;;;;5030671;28;21214;-52
2023/09/10 09:54:45;;;;;;;57.87;37.63;;;22.50;1.00;;;;;;5033237;28;20487;-52
2023/09/10 09:57:10;;;;;;;59.53;37.83;;;22.60;1.00;;;;;;5033009;28;20432;-52
2023/09/10 09:59:36;;;;;;;56.73;36.90;;;22.70;1.00;;;;;;5031044;28;20430;-52
2023/09/10 10:02:03;;;;;;;60.50;37.80;;;22.80;1.00;;;;;;5031002;28;20247;-53
2023/09/10 10:04:32;;;;;;;62.63;37.83;;;23.00;1.00;;;;;;5031283;28;20434;-52
2023/09/10 10:06:58;;;;;;;55.33;37.43;;;23.20;1.00;;;;;;5029961;28;20454;-52
2023/09/10 10:09:32;;;;;;;56.63;38.87;;;23.40;1.00;;;;;;5028534;28;20462;-52
2023/09/10 10:11:58;;;;;;;56.83;36.10;;;23.60;1.00;;;;;;5028242;28;20532;-52
2023/09/10 10:14:25;;;;;;;58.77;38.20;;;23.70;1.00;;;;;;5030381;28;20533;-52
2023/09/10 10:16:52;;;;;;;53.73;37.00;;;23.80;1.00;;;;;;5029260;28;20449;-52
2023/09/10 10:19:18;;;;;;;52.67;36.43;;;23.80;1.00;;;;;;5032362;28;20920;-52
2023/09/10 10:21:45;;;;;;;59.20;39.70;;;24.10;1.00;;;;;;5028544;28;20478;-52
2023/09/10 10:24:12;;;;;;;56.77;38.87;;;24.30;1.00;;;;;;5029615;28;20438;-52
2023/09/10 10:26:39;;;;;;;55.93;38.90;;;24.40;1.00;;;;;;5029361;28;20812;-51
2023/09/10 10:29:06;;;;;;;58.67;39.17;;;24.60;1.00;;;;;;5030419;28;20551;-52
2023/09/10 10:31:36;;;;;;;51.43;34.40;;;24.80;1.00;;;;;;5029685;28;20468;-50
2023/09/10 10:34:23;;;;;;;58.23;37.83;;;25.00;1.00;;;;;;5029648;28;20450;-50
2023/09/10 10:37:10;;;;;;;51.23;35.20;;;25.40;1.00;;;;;;5029254;28;20918;-50
2023/09/10 10:39:46;;;;;;;45.33;31.90;;;25.80;1.00;;;;;;5026462;28;20445;-51
2023/09/10 10:42:18;;;;;;;44.13;31.93;;;26.60;1.00;;;;;;5029670;28;20460;-50
2023/09/10 10:44:43;;;;;;;47.20;33.57;;;27.30;1.00;;;;;;5028258;28;20446;-51
2023/09/10 10:47:13;;;;;;;45.87;33.50;;;27.80;1.00;;;;;;5028997;28;20447;-51
2023/09/10 10:49:52;;;;;;;49.60;34.60;;;28.30;1.00;;;;;;5029286;28;20218;-51
2023/09/10 10:52:22;;;;;;;46.57;32.27;;;28.50;1.00;;;;;;5029653;28;20426;-51
2023/09/10 10:54:51;;;;;;;42.60;31.27;;;28.70;1.00;;;;;;5028907;28;20446;-51
2023/09/10 10:57:19;;;;;;;42.93;32.83;;;29.20;1.00;;;;;;5029070;28;20445;-51
2023/09/10 10:59:45;;;;;;;47.20;34.73;;;29.60;1.00;;;;;;5028980;28;20465;-52
2023/09/10 11:02:22;;;;;;;43.97;31.53;;;30.00;1.00;;;;;;5029514;28;20442;-52
2023/09/10 11:04:53;;;;;;;44.40;33.73;;;30.30;1.00;;;;;;5030053;28;20933;-52
2023/09/10 11:07:19;;;;;;;39.00;29.30;;;30.80;1.00;;;;;;5035009;28;20474;-51
2023/09/10 11:09:46;;;;;;;33.87;27.80;;;30.80;1.00;;;;;;5029791;28;21001;-52
2023/09/10 11:12:13;;;;;;;44.37;34.03;;;30.90;1.00;;;;;;5028897;28;20277;-51
2023/09/10 11:15:03;;;;;;;46.83;33.80;;;31.10;1.00;;;;;;5027943;28;20469;-52
2023/09/10 11:17:34;;;;;;;38.10;30.30;;;31.20;1.00;;;;;;5029194;28;20968;-52
2023/09/10 11:20:00;;;;;;;46.80;32.43;;;31.50;1.00;;;;;;5032048;28;22141;-53
2023/09/10 11:22:27;;;;;;;40.30;30.60;;;31.70;1.00;;;;;;5029614;28;20470;-52
2023/09/10 11:25:06;;;;;;;35.83;30.23;;;32.00;1.00;;;;;;5030700;28;20446;-52
2023/09/10 11:27:33;;;;;;;43.83;32.10;;;32.20;1.00;;;;;;5029129;28;20434;-54
2023/09/10 11:30:11;;;;;;;32.97;26.97;;;32.40;1.00;;;;;;5027709;28;20499;-52
2023/09/10 11:32:37;;;;;;;30.63;25.67;;;32.50;1.00;;;;;;5029675;28;20957;-51
2023/09/10 11:35:18;;;;;;;30.37;25.07;;;32.70;1.00;;;;;;5032786;28;20794;-52
2023/09/10 11:37:48;;;;;;;33.13;27.80;;;33.00;1.00;;;;;;5030133;28;20449;-53
2023/09/10 11:40:14;;;;;;;33.80;27.83;;;33.00;99.90;;;;;;5030087;28;20957;-52
2023/09/10 11:42:43;;;;;;;35.67;27.00;;;32.90;99.90;;;;;;5028677;28;20818;-52
2023/09/10 11:45:09;;;;;;;32.53;26.80;;;33.20;99.90;;;;;;5028713;28;20954;-52
2023/09/10 11:47:35;;;;;;;29.97;24.53;;;33.40;99.90;;;;;;5031893;28;20544;-54
2023/09/10 11:50:04;;;;;;;33.43;27.73;;;33.20;99.90;;;;;;5029346;28;20557;-55
2023/09/10 11:52:30;;;;;;;31.07;24.47;;;33.40;99.90;;;;;;5030133;28;20188;-54
2023/09/10 11:54:57;;;;;;;35.10;29.17;;;33.60;99.90;;;;;;5032381;28;20445;-54
2023/09/10 11:57:23;;;;;;;31.60;26.67;;;33.50;99.90;;;;;;5032491;28;20491;-55
2023/09/10 11:59:50;;;;;;;31.40;25.27;;;33.60;99.90;;;;;;5032120;28;20846;-53
2023/09/10 12:02:16;;;;;;;33.00;26.43;;;33.60;99.90;;;;;;5030499;28;20199;-53
2023/09/10 12:04:42;;;;;;;28.67;25.60;;;33.50;99.90;;;;;;5033129;28;20914;-52
2023/09/10 12:07:08;;;;;;;35.07;28.87;;;33.70;99.90;;;;;;5029583;28;20439;-53
2023/09/10 12:09:33;;;;;;;27.53;24.40;;;33.70;99.90;;;;;;5030957;28;20230;-51
2023/09/10 12:12:16;;;;;;;30.20;24.63;;;33.80;99.90;;;;;;5032171;28;20199;-53
2023/09/10 12:14:42;;;;;;;24.53;20.60;;;34.00;99.90;;;;;;5032510;28;20198;-52
2023/09/10 12:17:09;;;;;;;27.77;23.53;;;34.20;99.90;;;;;;5033478;28;20434;-53
2023/09/10 12:19:36;;;;;;;23.70;20.60;;;33.90;99.90;;;;;;5033241;28;20457;-54
2023/09/10 12:22:04;;;;;;;23.03;20.63;;;33.70;99.90;;;;;;5031209;28;20473;-54
2023/09/10 12:24:30;;;;;;;25.43;22.20;;;33.80;99.90;;;;;;5032089;28;20446;-54
2023/09/10 12:26:56;;;;;;;24.80;21.10;;;33.90;99.90;;;;;;5031645;28;20449;-54
2023/09/10 12:29:21;;;;;;;21.50;18.70;;;34.20;99.90;;;;;;5030256;28;20219;-52